sensor_id;sensor_type;location;lat;lon;timestamp;pressure;altitude;pressure_sealevel;temperature;humidity
596;BME280;19946;49.306;11.350;2023-03-14T00:02:26;94674.94;;;6.61;100.00
596;BME280;19946;49.306;11.350;2023-03-14T00:05:27;94650.19;;;6.42;100.00
596;BME280;19946;49.306;11.350;2023-03-14T00:08:27;94694.88;;;6.59;100.00
596;BME280;19946;49.306;11.350;2023-03-14T00:11:28;94694.41;;;6.64;100.00
596;BME280;19946;49.306;11.350;2023-03-14T00:14:31;94701.91;;;6.57;100.00
596;BME280;19946;49.306;11.350;2023-03-14T00:17:31;94716.41;;;6.58;100.00
596;BME280;19946;49.306;11.350;2023-03-14T00:20:31;94701.63;;;6.42;100.00
596;BME280;19946;49.306;11.350;2023-03-14T00:23:34;94708.53;;;6.59;100.00
596;BME280;19946;49.306;11.350;2023-03-14T00:26:34;94742.25;;;6.74;100.00
596;BME280;19946;49.306;11.350;2023-03-14T00:29:34;94740.75;;;6.72;100.00
596;BME280;19946;49.306;11.350;2023-03-14T00:32:35;94751.72;;;6.74;100.00
596;BME280;19946;49.306;11.350;2023-03-14T00:35:35;94758.78;;;6.72;100.00
596;BME280;19946;49.306;11.350;2023-03-14T00:38:37;94760.72;;;6.70;100.00
596;BME280;19946;49.306;11.350;2023-03-14T00:41:38;94767.53;;;6.79;100.00
596;BME280;19946;49.306;11.350;2023-03-14T00:44:39;94748.41;;;6.64;100.00
596;BME280;19946;49.306;11.350;2023-03-14T00:47:41;94799.19;;;6.97;100.00
596;BME280;19946;49.306;11.350;2023-03-14T00:50:46;94809.88;;;7.02;100.00
596;BME280;19946;49.306;11.350;2023-03-14T00:53:49;94808.41;;;7.00;100.00
596;BME280;19946;49.306;11.350;2023-03-14T00:56:49;94773.63;;;6.78;100.00
596;BME280;19946;49.306;11.350;2023-03-14T00:59:50;94762.84;;;6.92;100.00
596;BME280;19946;49.306;11.350;2023-03-14T01:02:51;94747.31;;;7.02;100.00
596;BME280;19946;49.306;11.350;2023-03-14T01:05:51;94694.03;;;6.76;100.00
596;BME280;19946;49.306;11.350;2023-03-14T01:08:53;94692.13;;;6.60;100.00
596;BME280;19946;49.306;11.350;2023-03-14T01:11:53;94730.09;;;6.84;100.00
596;BME280;19946;49.306;11.350;2023-03-14T01:14:54;94731.94;;;6.92;100.00
596;BME280;19946;49.306;11.350;2023-03-14T01:17:54;94712.31;;;6.91;100.00
596;BME280;19946;49.306;11.350;2023-03-14T01:20:54;94715.69;;;7.17;100.00
596;BME280;19946;49.306;11.350;2023-03-14T01:23:56;94687.38;;;7.17;100.00
596;BME280;19946;49.306;11.350;2023-03-14T01:26:57;94663.88;;;7.12;100.00
596;BME280;19946;49.306;11.350;2023-03-14T01:30:00;94622.56;;;6.88;100.00
596;BME280;19946;49.306;11.350;2023-03-14T01:33:00;94624.00;;;7.16;100.00
596;BME280;19946;49.306;11.350;2023-03-14T01:36:01;94610.78;;;7.11;100.00
596;BME280;19946;49.306;11.350;2023-03-14T01:39:05;94593.34;;;6.97;100.00
596;BME280;19946;49.306;11.350;2023-03-14T01:42:06;94559.47;;;6.76;100.00
596;BME280;19946;49.306;11.350;2023-03-14T01:48:57;94587.38;;;6.96;100.00
596;BME280;19946;49.306;11.350;2023-03-14T01:52:13;94589.69;;;7.08;100.00
596;BME280;19946;49.306;11.350;2023-03-14T01:55:17;94611.25;;;7.07;100.00
596;BME280;19946;49.306;11.350;2023-03-14T01:58:19;94635.44;;;7.14;100.00
596;BME280;19946;49.306;11.350;2023-03-14T02:01:21;94628.25;;;7.00;100.00
596;BME280;19946;49.306;11.350;2023-03-14T02:04:28;94671.47;;;7.14;100.00
596;BME280;19946;49.306;11.350;2023-03-14T02:07:35;94616.56;;;6.79;100.00
596;BME280;19946;49.306;11.350;2023-03-14T02:10:51;94638.19;;;6.94;100.00
596;BME280;19946;49.306;11.350;2023-03-14T02:14:03;94700.03;;;7.03;100.00
596;BME280;19946;49.306;11.350;2023-03-14T02:17:31;94688.44;;;6.81;100.00
596;BME280;19946;49.306;11.350;2023-03-14T02:21:04;94690.78;;;6.92;100.00
596;BME280;19946;49.306;11.350;2023-03-14T02:27:17;94677.09;;;6.91;100.00
596;BME280;19946;49.306;11.350;2023-03-14T02:30:27;94695.38;;;7.06;100.00
596;BME280;19946;49.306;11.350;2023-03-14T02:33:28;94664.63;;;6.79;100.00
596;BME280;19946;49.306;11.350;2023-03-14T02:36:29;94629.56;;;6.78;100.00
596;BME280;19946;49.306;11.350;2023-03-14T02:39:39;94663.34;;;6.83;100.00
596;BME280;19946;49.306;11.350;2023-03-14T02:42:41;94675.84;;;6.95;100.00
596;BME280;19946;49.306;11.350;2023-03-14T02:45:44;94636.91;;;6.73;100.00
596;BME280;19946;49.306;11.350;2023-03-14T02:48:53;94650.34;;;6.84;100.00
596;BME280;19946;49.306;11.350;2023-03-14T02:51:54;94665.38;;;6.97;100.00
596;BME280;19946;49.306;11.350;2023-03-14T02:54:55;94652.78;;;6.86;100.00
596;BME280;19946;49.306;11.350;2023-03-14T02:57:57;94652.00;;;6.93;100.00
596;BME280;19946;49.306;11.350;2023-03-14T03:00:57;94631.03;;;6.80;100.00
596;BME280;19946;49.306;11.350;2023-03-14T03:03:58;94649.44;;;6.93;100.00
596;BME280;19946;49.306;11.350;2023-03-14T03:06:58;94587.59;;;6.51;100.00
596;BME280;19946;49.306;11.350;2023-03-14T03:09:58;94651.38;;;6.91;100.00
596;BME280;19946;49.306;11.350;2023-03-14T03:12:59;94656.81;;;6.88;100.00
596;BME280;19946;49.306;11.350;2023-03-14T03:16:01;94663.88;;;6.86;100.00
596;BME280;19946;49.306;11.350;2023-03-14T03:19:01;94663.34;;;6.83;100.00
596;BME280;19946;49.306;11.350;2023-03-14T03:22:02;94647.06;;;6.74;100.00
596;BME280;19946;49.306;11.350;2023-03-14T03:25:04;94631.38;;;6.59;100.00
596;BME280;19946;49.306;11.350;2023-03-14T03:28:05;94617.06;;;6.57;100.00
596;BME280;19946;49.306;11.350;2023-03-14T03:31:10;94637.19;;;6.87;100.00
596;BME280;19946;49.306;11.350;2023-03-14T03:34:12;94611.72;;;6.76;100.00
596;BME280;19946;49.306;11.350;2023-03-14T03:37:14;94630.56;;;6.85;100.00
596;BME280;19946;49.306;11.350;2023-03-14T03:40:16;94619.13;;;6.79;100.00
596;BME280;19946;49.306;11.350;2023-03-14T03:43:16;94593.97;;;6.65;100.00
596;BME280;19946;49.306;11.350;2023-03-14T03:46:20;94588.25;;;6.53;100.00
596;BME280;19946;49.306;11.350;2023-03-14T03:49:20;94636.00;;;6.82;100.00
596;BME280;19946;49.306;11.350;2023-03-14T03:52:21;94605.66;;;6.59;100.00
596;BME280;19946;49.306;11.350;2023-03-14T03:55:21;94563.88;;;6.40;100.00
596;BME280;19946;49.306;11.350;2023-03-14T03:58:22;94616.81;;;6.68;100.00
596;BME280;19946;49.306;11.350;2023-03-14T04:01:22;94592.25;;;6.48;100.00
596;BME280;19946;49.306;11.350;2023-03-14T04:04:26;94600.41;;;6.43;100.00
596;BME280;19946;49.306;11.350;2023-03-14T04:07:27;94567.00;;;6.08;100.00
596;BME280;19946;49.306;11.350;2023-03-14T04:10:28;94544.94;;;6.15;100.00
596;BME280;19946;49.306;11.350;2023-03-14T04:13:43;94600.00;;;6.56;100.00
596;BME280;19946;49.306;11.350;2023-03-14T04:16:43;94557.06;;;6.31;100.00
596;BME280;19946;49.306;11.350;2023-03-14T04:19:48;94556.41;;;6.29;100.00
596;BME280;19946;49.306;11.350;2023-03-14T04:22:52;94555.16;;;6.33;100.00
596;BME280;19946;49.306;11.350;2023-03-14T04:25:53;94551.16;;;6.38;100.00
596;BME280;19946;49.306;11.350;2023-03-14T04:28:55;94550.13;;;6.23;100.00
596;BME280;19946;49.306;11.350;2023-03-14T04:31:56;94570.16;;;6.37;100.00
596;BME280;19946;49.306;11.350;2023-03-14T04:34:57;94559.88;;;6.37;100.00
596;BME280;19946;49.306;11.350;2023-03-14T04:37:58;94561.63;;;6.37;100.00
596;BME280;19946;49.306;11.350;2023-03-14T04:40:59;94567.81;;;6.26;100.00
596;BME280;19946;49.306;11.350;2023-03-14T04:44:04;94568.81;;;6.33;100.00
596;BME280;19946;49.306;11.350;2023-03-14T04:47:05;94541.59;;;6.22;100.00
596;BME280;19946;49.306;11.350;2023-03-14T04:50:06;94564.63;;;6.32;100.00
596;BME280;19946;49.306;11.350;2023-03-14T04:53:09;94573.00;;;6.34;100.00
596;BME280;19946;49.306;11.350;2023-03-14T04:56:09;94546.88;;;6.21;100.00
596;BME280;19946;49.306;11.350;2023-03-14T04:59:13;94579.44;;;6.38;100.00
596;BME280;19946;49.306;11.350;2023-03-14T05:02:16;94559.66;;;6.31;100.00
596;BME280;19946;49.306;11.350;2023-03-14T05:05:30;94564.19;;;6.37;100.00
596;BME280;19946;49.306;11.350;2023-03-14T05:08:45;94557.88;;;6.31;100.00
596;BME280;19946;49.306;11.350;2023-03-14T05:12:00;94561.97;;;6.42;100.00
596;BME280;19946;49.306;11.350;2023-03-14T05:15:20;94533.94;;;6.31;100.00
596;BME280;19946;49.306;11.350;2023-03-14T05:18:39;94541.47;;;6.24;100.00
596;BME280;19946;49.306;11.350;2023-03-14T05:22:05;94531.63;;;6.19;100.00
596;BME280;19946;49.306;11.350;2023-03-14T05:25:16;94559.50;;;6.32;100.00
596;BME280;19946;49.306;11.350;2023-03-14T05:28:36;94505.59;;;5.97;100.00
596;BME280;19946;49.306;11.350;2023-03-14T05:31:49;94557.88;;;6.31;100.00
596;BME280;19946;49.306;11.350;2023-03-14T05:35:18;94543.50;;;6.20;100.00
596;BME280;19946;49.306;11.350;2023-03-14T05:38:36;94546.94;;;6.29;100.00
596;BME280;19946;49.306;11.350;2023-03-14T05:41:49;94540.84;;;6.30;100.00
596;BME280;19946;49.306;11.350;2023-03-14T05:45:03;94505.19;;;6.09;100.00
596;BME280;19946;49.306;11.350;2023-03-14T05:48:32;94530.41;;;6.32;100.00
596;BME280;19946;49.306;11.350;2023-03-14T05:51:46;94505.47;;;6.24;100.00
596;BME280;19946;49.306;11.350;2023-03-14T05:55:01;94481.81;;;5.95;100.00
596;BME280;19946;49.306;11.350;2023-03-14T05:58:31;94490.88;;;6.07;100.00
596;BME280;19946;49.306;11.350;2023-03-14T06:01:58;94524.47;;;6.31;100.00
596;BME280;19946;49.306;11.350;2023-03-14T06:05:02;94507.53;;;6.20;100.00
596;BME280;19946;49.306;11.350;2023-03-14T06:08:03;94526.59;;;6.36;100.00
596;BME280;19946;49.306;11.350;2023-03-14T06:11:24;94505.25;;;6.17;100.00
596;BME280;19946;49.306;11.350;2023-03-14T06:14:25;94500.91;;;6.18;100.00
596;BME280;19946;49.306;11.350;2023-03-14T06:17:27;94477.84;;;6.00;100.00
596;BME280;19946;49.306;11.350;2023-03-14T06:20:36;94508.63;;;6.18;100.00
596;BME280;19946;49.306;11.350;2023-03-14T06:23:41;94476.22;;;5.99;100.00
596;BME280;19946;49.306;11.350;2023-03-14T06:26:42;94529.91;;;6.28;100.00
596;BME280;19946;49.306;11.350;2023-03-14T06:29:44;94483.28;;;5.97;100.00
596;BME280;19946;49.306;11.350;2023-03-14T06:32:45;94475.50;;;5.89;100.00
596;BME280;19946;49.306;11.350;2023-03-14T06:35:48;94510.56;;;6.16;100.00
596;BME280;19946;49.306;11.350;2023-03-14T06:38:48;94541.50;;;6.32;100.00
596;BME280;19946;49.306;11.350;2023-03-14T06:41:49;94524.75;;;6.28;100.00
596;BME280;19946;49.306;11.350;2023-03-14T06:44:51;94489.50;;;6.12;100.00
596;BME280;19946;49.306;11.350;2023-03-14T06:47:52;94480.59;;;6.07;100.00
596;BME280;19946;49.306;11.350;2023-03-14T06:50:58;94483.09;;;6.16;100.00
596;BME280;19946;49.306;11.350;2023-03-14T06:53:58;94536.16;;;6.51;100.00
596;BME280;19946;49.306;11.350;2023-03-14T06:57:02;94510.56;;;6.42;100.00
596;BME280;19946;49.306;11.350;2023-03-14T07:00:05;94485.75;;;6.33;100.00
596;BME280;19946;49.306;11.350;2023-03-14T07:03:06;94532.88;;;6.67;100.00
596;BME280;19946;49.306;11.350;2023-03-14T07:06:11;94504.84;;;6.56;100.00
596;BME280;19946;49.306;11.350;2023-03-14T07:09:12;94496.63;;;6.52;100.00
596;BME280;19946;49.306;11.350;2023-03-14T07:12:16;94491.97;;;6.48;100.00
596;BME280;19946;49.306;11.350;2023-03-14T07:15:17;94488.59;;;6.47;100.00
596;BME280;19946;49.306;11.350;2023-03-14T07:18:18;94537.16;;;6.84;100.00
596;BME280;19946;49.306;11.350;2023-03-14T07:21:20;94488.50;;;6.65;100.00
596;BME280;19946;49.306;11.350;2023-03-14T07:24:20;94505.78;;;6.81;100.00
596;BME280;19946;49.306;11.350;2023-03-14T07:27:21;94522.88;;;6.90;100.00
596;BME280;19946;49.306;11.350;2023-03-14T07:30:23;94520.59;;;6.87;100.00
596;BME280;19946;49.306;11.350;2023-03-14T07:33:26;94562.22;;;7.16;100.00
596;BME280;19946;49.306;11.350;2023-03-14T07:36:29;94551.13;;;7.16;100.00
596;BME280;19946;49.306;11.350;2023-03-14T07:39:30;94518.56;;;6.99;100.00
596;BME280;19946;49.306;11.350;2023-03-14T07:42:38;94554.97;;;7.12;100.00
596;BME280;19946;49.306;11.350;2023-03-14T07:45:49;94551.22;;;6.98;100.00
596;BME280;19946;49.306;11.350;2023-03-14T07:48:49;94520.22;;;6.74;100.00
596;BME280;19946;49.306;11.350;2023-03-14T07:51:50;94528.16;;;6.80;100.00
596;BME280;19946;49.306;11.350;2023-03-14T07:54:50;94546.47;;;6.85;100.00
596;BME280;19946;49.306;11.350;2023-03-14T07:57:51;94548.09;;;6.86;100.00
596;BME280;19946;49.306;11.350;2023-03-14T08:00:52;94556.66;;;6.95;100.00
596;BME280;19946;49.306;11.350;2023-03-14T08:03:53;94582.66;;;7.18;100.00
596;BME280;19946;49.306;11.350;2023-03-14T08:06:53;94570.44;;;7.20;100.00
596;BME280;19946;49.306;11.350;2023-03-14T08:09:54;94531.28;;;7.00;100.00
596;BME280;19946;49.306;11.350;2023-03-14T08:12:57;94529.03;;;7.05;100.00
596;BME280;19946;49.306;11.350;2023-03-14T08:15:58;94556.34;;;7.32;100.00
596;BME280;19946;49.306;11.350;2023-03-14T08:18:58;94519.25;;;7.17;100.00
596;BME280;19946;49.306;11.350;2023-03-14T08:21:59;94494.50;;;7.16;100.00
596;BME280;19946;49.306;11.350;2023-03-14T08:25:00;94518.53;;;7.41;100.00
596;BME280;19946;49.306;11.350;2023-03-14T08:28:01;94537.56;;;7.56;100.00
596;BME280;19946;49.306;11.350;2023-03-14T08:31:01;94511.81;;;7.56;100.00
596;BME280;19946;49.306;11.350;2023-03-14T08:34:02;94503.94;;;7.65;100.00
596;BME280;19946;49.306;11.350;2023-03-14T08:37:03;94488.78;;;7.70;100.00
596;BME280;19946;49.306;11.350;2023-03-14T08:40:04;94466.28;;;7.64;100.00
596;BME280;19946;49.306;11.350;2023-03-14T08:43:10;94511.50;;;7.91;100.00
596;BME280;19946;49.306;11.350;2023-03-14T08:46:10;94501.72;;;7.87;100.00
596;BME280;19946;49.306;11.350;2023-03-14T08:49:10;94480.91;;;7.80;100.00
596;BME280;19946;49.306;11.350;2023-03-14T08:52:12;94524.41;;;8.16;100.00
596;BME280;19946;49.306;11.350;2023-03-14T08:55:13;94471.59;;;7.87;100.00
596;BME280;19946;49.306;11.350;2023-03-14T08:58:14;94503.00;;;8.07;100.00
596;BME280;19946;49.306;11.350;2023-03-14T09:01:14;94489.63;;;8.03;100.00
596;BME280;19946;49.306;11.350;2023-03-14T09:04:15;94486.53;;;8.24;100.00
596;BME280;19946;49.306;11.350;2023-03-14T09:07:15;94465.94;;;7.92;100.00
596;BME280;19946;49.306;11.350;2023-03-14T09:10:16;94492.34;;;8.34;100.00
596;BME280;19946;49.306;11.350;2023-03-14T09:13:16;94457.03;;;8.27;100.00
596;BME280;19946;49.306;11.350;2023-03-14T09:16:17;94506.22;;;8.33;100.00
596;BME280;19946;49.306;11.350;2023-03-14T09:19:17;94454.16;;;8.14;100.00
596;BME280;19946;49.306;11.350;2023-03-14T09:22:20;94507.41;;;8.86;100.00
596;BME280;19946;49.306;11.350;2023-03-14T09:25:24;94506.63;;;8.69;100.00
596;BME280;19946;49.306;11.350;2023-03-14T09:28:25;94486.19;;;9.07;100.00
596;BME280;19946;49.306;11.350;2023-03-14T09:31:26;94513.88;;;9.52;100.00
596;BME280;19946;49.306;11.350;2023-03-14T09:34:27;94518.09;;;9.45;100.00
596;BME280;19946;49.306;11.350;2023-03-14T09:37:30;94477.09;;;9.42;100.00
596;BME280;19946;49.306;11.350;2023-03-14T09:40:34;94519.94;;;9.36;100.00
596;BME280;19946;49.306;11.350;2023-03-14T09:43:36;94461.38;;;9.29;100.00
596;BME280;19946;49.306;11.350;2023-03-14T09:46:38;94469.78;;;9.76;100.00
596;BME280;19946;49.306;11.350;2023-03-14T09:49:40;94457.78;;;9.61;100.00
596;BME280;19946;49.306;11.350;2023-03-14T09:52:45;94484.94;;;9.79;100.00
596;BME280;19946;49.306;11.350;2023-03-14T09:55:50;94460.47;;;9.44;100.00
596;BME280;19946;49.306;11.350;2023-03-14T09:59:03;94502.47;;;10.15;100.00
596;BME280;19946;49.306;11.350;2023-03-14T10:02:25;94487.34;;;9.58;100.00
596;BME280;19946;49.306;11.350;2023-03-14T10:05:26;94469.69;;;9.70;100.00
596;BME280;19946;49.306;11.350;2023-03-14T10:08:28;94496.66;;;9.90;100.00
596;BME280;19946;49.306;11.350;2023-03-14T10:11:32;94477.91;;;9.73;100.00
596;BME280;19946;49.306;11.350;2023-03-14T10:14:36;94452.19;;;9.26;100.00
596;BME280;19946;49.306;11.350;2023-03-14T10:17:46;94442.22;;;9.46;100.00
596;BME280;19946;49.306;11.350;2023-03-14T10:20:48;94494.00;;;9.98;100.00
596;BME280;19946;49.306;11.350;2023-03-14T10:23:49;94488.28;;;9.88;100.00
596;BME280;19946;49.306;11.350;2023-03-14T10:26:53;94462.31;;;9.59;100.00
596;BME280;19946;49.306;11.350;2023-03-14T10:29:56;94478.97;;;9.56;100.00
596;BME280;19946;49.306;11.350;2023-03-14T10:32:57;94424.44;;;9.51;100.00
596;BME280;19946;49.306;11.350;2023-03-14T10:36:06;94462.75;;;9.85;100.00
596;BME280;19946;49.306;11.350;2023-03-14T10:42:27;94470.09;;;9.81;100.00
596;BME280;19946;49.306;11.350;2023-03-14T10:45:36;94471.91;;;10.18;100.00
596;BME280;19946;49.306;11.350;2023-03-14T10:48:38;94470.72;;;10.58;100.00
596;BME280;19946;49.306;11.350;2023-03-14T10:51:42;94446.53;;;10.37;100.00
596;BME280;19946;49.306;11.350;2023-03-14T10:54:47;94475.50;;;10.09;100.00
596;BME280;19946;49.306;11.350;2023-03-14T10:57:48;94448.00;;;9.94;100.00
596;BME280;19946;49.306;11.350;2023-03-14T11:00:54;94464.13;;;10.18;100.00
596;BME280;19946;49.306;11.350;2023-03-14T11:04:11;94474.59;;;10.25;100.00
596;BME280;19946;49.306;11.350;2023-03-14T11:07:38;94465.97;;;10.10;100.00
596;BME280;19946;49.306;11.350;2023-03-14T11:10:42;94480.69;;;10.09;100.00
596;BME280;19946;49.306;11.350;2023-03-14T11:14:12;94475.00;;;9.91;100.00
596;BME280;19946;49.306;11.350;2023-03-14T11:17:27;94419.38;;;9.58;100.00
596;BME280;19946;49.306;11.350;2023-03-14T11:20:37;94456.63;;;9.86;100.00
596;BME280;19946;49.306;11.350;2023-03-14T11:30:38;94472.13;;;10.46;100.00
596;BME280;19946;49.306;11.350;2023-03-14T11:34:01;94442.38;;;9.90;100.00
596;BME280;19946;49.306;11.350;2023-03-14T11:37:16;94416.59;;;9.82;100.00
596;BME280;19946;49.306;11.350;2023-03-14T11:40:23;94392.25;;;9.76;100.00
596;BME280;19946;49.306;11.350;2023-03-14T11:43:40;94437.47;;;10.18;100.00
596;BME280;19946;49.306;11.350;2023-03-14T11:46:56;94437.94;;;10.21;100.00
596;BME280;19946;49.306;11.350;2023-03-14T11:50:04;94441.53;;;10.35;100.00
596;BME280;19946;49.306;11.350;2023-03-14T11:53:17;94412.47;;;10.10;100.00
596;BME280;19946;49.306;11.350;2023-03-14T11:56:25;94420.31;;;10.17;100.00
596;BME280;19946;49.306;11.350;2023-03-14T11:59:50;94455.53;;;10.85;100.00
596;BME280;19946;49.306;11.350;2023-03-14T12:03:20;94397.34;;;11.17;100.00
596;BME280;19946;49.306;11.350;2023-03-14T12:06:50;94435.84;;;11.05;100.00
596;BME280;19946;49.306;11.350;2023-03-14T12:09:52;94428.25;;;11.18;100.00
596;BME280;19946;49.306;11.350;2023-03-14T12:12:53;94385.31;;;11.30;100.00
596;BME280;19946;49.306;11.350;2023-03-14T12:15:59;94391.19;;;11.82;100.00
596;BME280;19946;49.306;11.350;2023-03-14T12:22:24;94408.94;;;11.21;100.00
596;BME280;19946;49.306;11.350;2023-03-14T12:25:27;94391.16;;;11.18;100.00
596;BME280;19946;49.306;11.350;2023-03-14T12:28:32;94397.03;;;11.48;100.00
596;BME280;19946;49.306;11.350;2023-03-14T12:31:42;94419.78;;;12.10;100.00
596;BME280;19946;49.306;11.350;2023-03-14T12:34:43;94382.50;;;12.17;100.00
596;BME280;19946;49.306;11.350;2023-03-14T12:37:47;94369.53;;;11.68;100.00
596;BME280;19946;49.306;11.350;2023-03-14T12:50:42;94361.22;;;10.58;100.00
596;BME280;19946;49.306;11.350;2023-03-14T12:53:59;94412.31;;;10.85;100.00
596;BME280;19946;49.306;11.350;2023-03-14T12:57:28;94407.41;;;10.76;100.00
596;BME280;19946;49.306;11.350;2023-03-14T13:00:34;94361.75;;;10.39;100.00
596;BME280;19946;49.306;11.350;2023-03-14T13:03:56;94411.00;;;10.75;100.00
596;BME280;19946;49.306;11.350;2023-03-14T13:06:59;94360.41;;;10.57;100.00
596;BME280;19946;49.306;11.350;2023-03-14T13:13:26;94403.16;;;10.68;100.00
596;BME280;19946;49.306;11.350;2023-03-14T13:16:28;94371.50;;;10.37;100.00
596;BME280;19946;49.306;11.350;2023-03-14T13:19:31;94429.09;;;10.31;100.00
596;BME280;19946;49.306;11.350;2023-03-14T13:22:34;94366.41;;;9.16;100.00
596;BME280;19946;49.306;11.350;2023-03-14T13:25:37;94432.59;;;9.09;100.00
596;BME280;19946;49.306;11.350;2023-03-14T13:28:37;94424.97;;;8.85;100.00
596;BME280;19946;49.306;11.350;2023-03-14T13:31:43;94441.47;;;8.67;100.00
596;BME280;19946;49.306;11.350;2023-03-14T13:34:45;94430.13;;;8.29;100.00
596;BME280;19946;49.306;11.350;2023-03-14T13:37:52;94480.91;;;8.37;100.00
596;BME280;19946;49.306;11.350;2023-03-14T13:40:57;94467.06;;;8.05;100.00
596;BME280;19946;49.306;11.350;2023-03-14T13:44:12;94491.72;;;8.00;100.00
596;BME280;19946;49.306;11.350;2023-03-14T13:47:16;94514.44;;;7.96;100.00
596;BME280;19946;49.306;11.350;2023-03-14T13:50:17;94464.00;;;7.61;100.00
596;BME280;19946;49.306;11.350;2023-03-14T13:53:18;94518.13;;;7.86;100.00
596;BME280;19946;49.306;11.350;2023-03-14T13:56:24;94477.69;;;7.46;100.00
596;BME280;19946;49.306;11.350;2023-03-14T13:59:27;94455.28;;;7.30;100.00
596;BME280;19946;49.306;11.350;2023-03-14T14:02:28;94492.13;;;7.22;100.00
596;BME280;19946;49.306;11.350;2023-03-14T14:05:29;94492.41;;;7.11;100.00
596;BME280;19946;49.306;11.350;2023-03-14T14:08:31;94503.81;;;7.09;100.00
596;BME280;19946;49.306;11.350;2023-03-14T14:11:48;94500.69;;;6.89;100.00
596;BME280;19946;49.306;11.350;2023-03-14T14:15:13;94545.78;;;7.09;100.00
596;BME280;19946;49.306;11.350;2023-03-14T14:18:20;94495.44;;;6.73;100.00
596;BME280;19946;49.306;11.350;2023-03-14T14:21:23;94549.63;;;7.05;100.00
596;BME280;19946;49.306;11.350;2023-03-14T14:24:28;94555.44;;;7.07;100.00
596;BME280;19946;49.306;11.350;2023-03-14T14:27:36;94562.84;;;7.10;100.00
596;BME280;19946;49.306;11.350;2023-03-14T14:30:38;94517.38;;;6.85;100.00
596;BME280;19946;49.306;11.350;2023-03-14T14:33:46;94560.25;;;7.02;100.00
596;BME280;19946;49.306;11.350;2023-03-14T14:36:46;94571.97;;;7.05;100.00
596;BME280;19946;49.306;11.350;2023-03-14T14:39:51;94586.13;;;7.01;100.00
596;BME280;19946;49.306;11.350;2023-03-14T14:42:53;94581.34;;;6.80;100.00
596;BME280;19946;49.306;11.350;2023-03-14T14:45:54;94651.38;;;6.91;100.00
596;BME280;19946;49.306;11.350;2023-03-14T14:48:58;94680.53;;;6.56;100.00
596;BME280;19946;49.306;11.350;2023-03-14T14:52:11;94683.63;;;6.42;100.00
596;BME280;19946;49.306;11.350;2023-03-14T14:55:19;94662.81;;;6.18;100.00
596;BME280;19946;49.306;11.350;2023-03-14T14:58:48;94672.25;;;5.82;100.00
596;BME280;19946;49.306;11.350;2023-03-14T15:01:48;94725.44;;;5.99;100.00
596;BME280;19946;49.306;11.350;2023-03-14T15:04:52;94711.19;;;5.77;100.00
596;BME280;19946;49.306;11.350;2023-03-14T15:07:53;94747.19;;;5.68;100.00
596;BME280;19946;49.306;11.350;2023-03-14T15:10:54;94764.00;;;5.53;100.00
596;BME280;19946;49.306;11.350;2023-03-14T15:13:55;94807.00;;;5.50;100.00
596;BME280;19946;49.306;11.350;2023-03-14T15:16:55;94783.09;;;5.31;100.00
596;BME280;19946;49.306;11.350;2023-03-14T15:19:56;94789.19;;;5.20;100.00
596;BME280;19946;49.306;11.350;2023-03-14T15:22:58;94801.66;;;5.05;100.00
596;BME280;19946;49.306;11.350;2023-03-14T15:26:02;94834.19;;;5.05;100.00
596;BME280;19946;49.306;11.350;2023-03-14T15:29:03;94801.63;;;4.67;100.00
596;BME280;19946;49.306;11.350;2023-03-14T15:32:03;94840.53;;;4.91;100.00
596;BME280;19946;49.306;11.350;2023-03-14T15:35:04;94853.22;;;4.93;100.00
596;BME280;19946;49.306;11.350;2023-03-14T15:38:05;94851.34;;;4.85;100.00
596;BME280;19946;49.306;11.350;2023-03-14T15:41:05;94850.41;;;4.86;100.00
596;BME280;19946;49.306;11.350;2023-03-14T15:44:06;94852.81;;;4.88;100.00
596;BME280;19946;49.306;11.350;2023-03-14T15:47:09;94882.50;;;5.09;100.00
596;BME280;19946;49.306;11.350;2023-03-14T15:50:10;94858.63;;;4.99;100.00
596;BME280;19946;49.306;11.350;2023-03-14T15:53:11;94870.91;;;4.96;100.00
596;BME280;19946;49.306;11.350;2023-03-14T15:56:14;94875.38;;;5.03;100.00
596;BME280;19946;49.306;11.350;2023-03-14T15:59:15;94856.22;;;5.07;100.00
596;BME280;19946;49.306;11.350;2023-03-14T16:02:15;94883.75;;;5.15;100.00
596;BME280;19946;49.306;11.350;2023-03-14T16:05:16;94871.31;;;5.10;100.00
596;BME280;19946;49.306;11.350;2023-03-14T16:08:20;94916.41;;;5.42;100.00
596;BME280;19946;49.306;11.350;2023-03-14T16:11:21;94899.81;;;5.27;100.00
596;BME280;19946;49.306;11.350;2023-03-14T16:14:21;94907.91;;;5.22;100.00
596;BME280;19946;49.306;11.350;2023-03-14T16:17:23;94932.50;;;5.34;100.00
596;BME280;19946;49.306;11.350;2023-03-14T16:23:55;94946.97;;;5.26;100.00
596;BME280;19946;49.306;11.350;2023-03-14T16:26:55;94886.03;;;4.99;100.00
596;BME280;19946;49.306;11.350;2023-03-14T16:29:57;94901.69;;;4.86;100.00
596;BME280;19946;49.306;11.350;2023-03-14T16:33:00;94876.19;;;4.85;100.00
596;BME280;19946;49.306;11.350;2023-03-14T16:36:03;94882.63;;;4.79;100.00
596;BME280;19946;49.306;11.350;2023-03-14T16:39:11;94982.09;;;5.25;100.00
596;BME280;19946;49.306;11.350;2023-03-14T16:42:11;94950.31;;;4.97;100.00
596;BME280;19946;49.306;11.350;2023-03-14T16:45:12;94954.66;;;5.26;100.00
596;BME280;19946;49.306;11.350;2023-03-14T16:48:12;94986.13;;;5.18;100.00
596;BME280;19946;49.306;11.350;2023-03-14T16:51:15;94993.00;;;5.08;100.00
596;BME280;19946;49.306;11.350;2023-03-14T16:54:16;94951.44;;;4.64;100.00
596;BME280;19946;49.306;11.350;2023-03-14T16:57:17;94993.06;;;4.87;100.00
596;BME280;19946;49.306;11.350;2023-03-14T17:00:17;94995.47;;;4.79;100.00
596;BME280;19946;49.306;11.350;2023-03-14T17:03:18;95061.19;;;5.10;100.00
596;BME280;19946;49.306;11.350;2023-03-14T17:06:21;95059.03;;;5.06;100.00
596;BME280;19946;49.306;11.350;2023-03-14T17:09:25;95054.38;;;4.90;100.00